LFRVLFRD

Guest
Details From LFRV - Vannes Meucon
To LFRD - Dinard Pleurtuit-St Malo
Flight Number -
Tags generated
Created
Modified
Stats Distance 58 nm / 107 km
Max Altitude 0 ft / 0 m
Waypoints 2
Social Downloads 1
Likes 0
Share VATSIM

Download

Looking for another format? Having issues loading an existing format? Contact us
Advertisement - Login to hide

Notes

Basic altitude profile: - Ascent Rate: 2500ft/min - Ascent Speed: 250kts - Cruise Altitude: 35000ft - Cruise Speed: 420kts - Descent Rate: 1500ft/min - Descent Speed: 250kts Options: - Use NATs: no - Use PACOTS: no - Use low airways: no - Use high airways: no

Route

LFRV LFRD

ID Type Via Altitude Latitude Longitude Leg Dist Tot Dist Heading (true) Name
O LFRV APT - 0 ft / 0 m 47.72326˚ -2.71851˚ - 0 nm - Vannes Meucon
O LFRD APT - 0 ft / 0 m 48.58798˚ -2.07992˚ 57 nm 57 nm 26° / 26° Dinard Pleurtuit-St Malo

Altitude Profile

Advertisement - Login to hide

LFRV

Details ICAO LFRV (VNE)
Name Vannes Meucon
Region France
Timezone Europe/Paris (UTC+1.0)
Stats Elevation 439 ft / 134 m (AMSL)
Location 47.723264° -2.718513°
Runways 1
Magnetic Variation 0.921° W

METAR

LFRV 150630Z AUTO 27007KT CAVOK 04/03 Q1001

Decode

TAF

Not found

Departure Runways

ID Width Length Bearing (true) Bearing (mag) Surface Threshold Offset Overrun Length
04 148 ft / 45 m 5,006 ft / 1,526 m 39.13° 40.05° Asphalt 0 ft / 0 m 0 ft / 0 m
22 148 ft / 45 m 5,006 ft / 1,526 m 219.14° 220.06° Asphalt 0 ft / 0 m 0 ft / 0 m

LFRD

Details ICAO LFRD (DNR)
Name Dinard Pleurtuit-St Malo
Region France
Timezone Europe/Paris (UTC+1.0)
Stats Elevation 216 ft / 66 m (AMSL)
Location 48.587983° -2.079916°
Runways 2
Magnetic Variation 0.798° W

METAR

LFRD 150630Z AUTO 25011KT 9999 FEW047 BKN062 BKN072 06/03 Q0998 TEMPO 2000 TSRAGS BKN015CB BECMG 31020G35KT

Decode

TAF

TAF LFRD 150500Z 1506/1606 25010KT 9999 BKN040 TEMPO 1506/1507 25015G30KT TEMPO 1506/1514 4000 SHRAGS BKN020CB PROB40 TEMPO 1506/1512 2000 TSRAGS BKN015CB BECMG 1507/1509 31020G35KT BECMG 1514/1516 34015G25KT BECMG 1522/1524 35010KT PROB30 TEMPO 1600/1604 35015G25KT 5000 SHRA BKN020TCU

Decode

Destination Runways

ID Width Length Bearing (true) Bearing (mag) Surface Threshold Offset Overrun Length
12 148 ft / 45 m 4,909 ft / 1,496 m 115.13° 115.93° Asphalt 0 ft / 0 m 0 ft / 0 m
17 148 ft / 45 m 7,199 ft / 2,194 m 170.09° 170.89° Asphalt 0 ft / 0 m 0 ft / 0 m
30 148 ft / 45 m 4,909 ft / 1,496 m 295.14° 295.94° Asphalt 669 ft / 204 m 0 ft / 0 m
35 148 ft / 45 m 7,199 ft / 2,194 m 350.10° 350.90° Asphalt 0 ft / 0 m 0 ft / 0 m

Approach Navaids

Runway Type Ident Frequency Range Bearing (true) Bearing (mag) Slope Elevation
35 Localiser DR 110.75 MHz 27 nm / 50 km 350.08° 350.88° - 216 ft / 66 m (AMSL)
35 Glidescope DR 110.75 MHz 27 nm / 50 km 350.08° 350.88° 3.00° 216 ft / 66 m (AMSL)
35 DME DR 110.75 MHz 27 nm / 50 km - - - 216 ft / 66 m (AMSL)